Houthem, Netherlands
Current Conditions -  °F | °C
As of 6:25 AM on Sunday 21 Dec 2014 (Local Time) from EHBK Reporting Station
Scattered Clouds Scattered Clouds  
Wind Chill: 31°   Ceiling: Unl
Heat Index: 37°   Visibility: 4mi
Dew Point: 37°   Wind: 9mph
Humidity: 100%   Direction: 200°SSW
Pressure: 30.42"   Gusts: NA
Location:  50.87°N, 5.79°E
Report Text: EHBK 210525Z AUTO 20008KT 7000 SCT019 SCT023 03/03 Q1030 TEMPO5000
Loading
Personal Weather Stations






























Interactive Weather Map New forecast layout! Learn more

10-Day Weather Forecast

Advertisements
Track Severe Weather on mobile